createdAt,value
2022-09-01T00:00:02.208Z,21.73
2022-09-01T00:02:32.528Z,21.62
2022-09-01T00:05:00.622Z,21.64
2022-09-01T00:07:31.701Z,21.65
2022-09-01T00:09:59.978Z,21.55
2022-09-01T00:12:27.422Z,21.46
2022-09-01T00:14:54.795Z,21.46
2022-09-01T00:17:22.536Z,21.38
2022-09-01T00:19:49.865Z,21.52
2022-09-01T00:22:17.204Z,21.76
2022-09-01T00:24:45.646Z,21.71
2022-09-01T00:27:13.260Z,21.47
2022-09-01T00:29:43.308Z,21.50
2022-09-01T00:32:11.814Z,21.21
2022-09-01T00:34:39.493Z,21.48
2022-09-01T00:37:13.679Z,21.35
2022-09-01T00:39:41.711Z,21.28
2022-09-01T00:42:14.213Z,21.43
2022-09-01T00:44:42.253Z,21.19
2022-09-01T00:47:11.133Z,21.03
2022-09-01T00:49:52.894Z,20.89
2022-09-01T00:52:35.931Z,20.84
2022-09-01T00:55:18.537Z,20.88
2022-09-01T00:57:46.894Z,21.01
2022-09-01T01:00:21.168Z,20.66
2022-09-01T01:02:58.445Z,20.47
2022-09-01T01:05:54.199Z,20.54
2022-09-01T01:08:27.538Z,20.61
2022-09-01T01:10:55.565Z,20.14
2022-09-01T01:13:26.070Z,20.06
2022-09-01T01:15:53.400Z,20.15
2022-09-01T01:18:21.148Z,20.44
2022-09-01T01:21:16.239Z,20.21
2022-09-01T01:23:56.597Z,20.25
2022-09-01T01:26:24.055Z,20.04
2022-09-01T01:28:55.135Z,19.99
2022-09-01T01:31:24.334Z,19.95
2022-09-01T01:33:53.246Z,20.07
2022-09-01T01:36:21.611Z,20.18
2022-09-01T01:38:50.428Z,19.99
2022-09-01T01:41:19.715Z,20.12
2022-09-01T01:43:48.338Z,20.14
2022-09-01T01:46:18.239Z,20.19
2022-09-01T01:48:47.181Z,19.86
2022-09-01T01:51:15.459Z,19.97
2022-09-01T01:53:43.605Z,20.51
2022-09-01T01:56:11.678Z,19.92
2022-09-01T01:58:40.542Z,20.15
2022-09-01T02:01:12.003Z,20.14
2022-09-01T02:03:39.902Z,19.87
2022-09-01T02:06:08.275Z,19.41
2022-09-01T02:08:36.608Z,19.67
2022-09-01T02:11:05.928Z,19.57
2022-09-01T02:13:34.166Z,19.65
2022-09-01T02:16:04.462Z,19.67
2022-09-01T02:18:36.576Z,19.65
2022-09-01T02:21:14.005Z,19.56
2022-09-01T02:23:43.889Z,19.54
2022-09-01T02:26:16.544Z,19.62
2022-09-01T02:28:48.867Z,19.69
2022-09-01T02:31:21.077Z,19.70
2022-09-01T02:33:48.765Z,19.93
2022-09-01T02:36:17.585Z,20.06
2022-09-01T02:38:53.336Z,20.16
2022-09-01T02:41:23.763Z,19.85
2022-09-01T02:43:52.071Z,19.78
2022-09-01T02:46:24.348Z,20.11
2022-09-01T02:48:53.186Z,19.65
2022-09-01T02:51:23.761Z,19.65
2022-09-01T02:53:53.023Z,19.79
2022-09-01T02:56:23.924Z,19.52
2022-09-01T02:58:53.413Z,19.54
2022-09-01T03:01:29.378Z,19.18
2022-09-01T03:03:58.859Z,19.66
2022-09-01T03:06:26.636Z,19.77
2022-09-01T03:08:55.386Z,19.72
2022-09-01T03:11:23.860Z,19.52
2022-09-01T03:13:51.822Z,19.61
2022-09-01T03:16:19.293Z,19.64
2022-09-01T03:18:47.125Z,19.06
2022-09-01T03:21:16.284Z,18.96
2022-09-01T03:23:45.012Z,19.32
2022-09-01T03:26:13.600Z,19.17
2022-09-01T03:28:41.377Z,19.28
2022-09-01T03:31:09.485Z,19.50
2022-09-01T03:33:37.200Z,19.65
2022-09-01T03:36:14.767Z,19.66
2022-09-01T03:38:44.191Z,19.75
2022-09-01T03:41:13.562Z,19.68
2022-09-01T03:43:49.230Z,19.52
2022-09-01T03:46:24.453Z,19.33
2022-09-01T03:48:53.184Z,19.08
2022-09-01T03:51:22.817Z,18.82
2022-09-01T03:53:54.553Z,18.60
2022-09-01T03:56:24.183Z,18.72
2022-09-01T03:58:52.193Z,18.97
2022-09-01T04:01:19.824Z,18.77
2022-09-01T04:03:49.199Z,18.84
2022-09-01T04:06:19.466Z,18.88
2022-09-01T04:08:47.361Z,18.62
2022-09-01T04:11:18.688Z,18.64
2022-09-01T04:13:47.452Z,19.03
2022-09-01T04:16:39.547Z,18.78
2022-09-01T04:19:16.002Z,18.85
2022-09-01T04:21:44.906Z,18.87
2022-09-01T04:24:16.352Z,19.04
2022-09-01T04:30:33.720Z,18.64
2022-09-01T04:33:01.844Z,18.91
2022-09-01T04:35:37.888Z,19.09
2022-09-01T04:38:08.390Z,19.21
2022-09-01T04:40:39.558Z,19.01
2022-09-01T04:43:09.130Z,18.87
2022-09-01T04:45:36.885Z,19.10
2022-09-01T04:48:29.660Z,19.44
2022-09-01T04:51:18.006Z,19.32
2022-09-01T04:53:50.779Z,19.09
2022-09-01T04:56:23.093Z,18.99
2022-09-01T04:58:52.193Z,19.09
2022-09-01T05:01:21.317Z,18.90
2022-09-01T05:03:56.579Z,19.10
2022-09-01T05:06:26.509Z,19.10
2022-09-01T05:08:57.913Z,19.02
2022-09-01T05:11:27.869Z,18.98
2022-09-01T05:13:57.918Z,19.10
2022-09-01T05:16:25.925Z,19.09
2022-09-01T05:18:54.247Z,19.23
2022-09-01T05:21:24.826Z,19.39
2022-09-01T05:23:54.319Z,19.58
2022-09-01T05:26:23.456Z,19.38
2022-09-01T05:28:54.099Z,19.30
2022-09-01T05:31:23.027Z,19.24
2022-09-01T05:33:50.954Z,19.18
2022-09-01T05:36:20.162Z,19.01
2022-09-01T05:38:48.818Z,19.01
2022-09-01T05:41:16.593Z,19.32
2022-09-01T05:43:49.098Z,19.42
2022-09-01T05:46:19.046Z,19.08
2022-09-01T05:48:49.540Z,19.16
2022-09-01T05:51:43.347Z,18.88
2022-09-01T05:54:14.546Z,18.95
2022-09-01T05:56:44.316Z,19.26
2022-09-01T05:59:28.991Z,19.43
2022-09-01T06:02:14.153Z,19.50
2022-09-01T06:05:17.537Z,19.49
2022-09-01T06:07:47.299Z,19.38
2022-09-01T06:10:20.751Z,19.25
2022-09-01T06:12:53.952Z,19.28
2022-09-01T06:15:22.905Z,19.24
2022-09-01T06:17:50.349Z,19.09
2022-09-01T06:20:19.092Z,18.98
2022-09-01T06:22:47.583Z,18.73
2022-09-01T06:25:18.645Z,18.77
2022-09-01T06:27:48.377Z,18.93
2022-09-01T06:30:23.079Z,18.89
2022-09-01T06:32:54.894Z,18.89
2022-09-01T06:35:29.966Z,18.94
2022-09-01T06:37:58.649Z,18.88
2022-09-01T06:40:27.966Z,19.07
2022-09-01T06:42:55.644Z,19.03
2022-09-01T06:45:24.170Z,19.26
2022-09-01T06:47:59.887Z,19.09
2022-09-01T06:53:34.554Z,19.10
2022-09-01T06:56:03.116Z,19.00
2022-09-01T06:58:31.292Z,19.04
2022-09-01T07:00:58.696Z,19.22
2022-09-01T07:03:26.597Z,19.29
2022-09-01T07:06:01.426Z,19.56
2022-09-01T07:09:18.984Z,19.68
2022-09-01T07:14:17.041Z,19.48
2022-09-01T07:16:52.350Z,19.76
2022-09-01T07:19:21.660Z,19.84
2022-09-01T07:24:37.600Z,19.59
2022-09-01T07:27:09.550Z,19.49
2022-09-01T07:29:39.517Z,19.81
2022-09-01T07:34:58.876Z,19.68
2022-09-01T07:43:08.615Z,20.02
2022-09-01T07:45:58.350Z,19.81
2022-09-01T07:51:36.745Z,20.25
2022-09-01T07:54:05.034Z,19.96
2022-09-01T07:56:36.318Z,19.92
2022-09-01T07:59:08.139Z,20.02
2022-09-01T08:01:37.310Z,20.08
2022-09-01T08:04:05.463Z,20.11
2022-09-01T08:06:41.512Z,19.91
2022-09-01T08:09:11.944Z,19.68
2022-09-01T08:12:03.092Z,19.54
2022-09-01T08:14:34.804Z,19.68
2022-09-01T08:17:16.735Z,19.66
2022-09-01T08:19:47.128Z,19.80
2022-09-01T08:22:16.562Z,20.04
2022-09-01T08:24:44.158Z,20.05
2022-09-01T08:27:11.872Z,20.08
2022-09-01T08:29:39.292Z,20.03
2022-09-01T08:32:06.626Z,20.41
2022-09-01T08:34:34.526Z,20.30
2022-09-01T08:37:01.871Z,20.61
2022-09-01T08:39:29.659Z,20.27
2022-09-01T08:42:09.942Z,20.20
2022-09-01T08:44:41.110Z,20.48
2022-09-01T08:47:13.871Z,20.28
2022-09-01T08:49:46.989Z,20.39
2022-09-01T08:52:24.149Z,20.71
2022-09-01T08:55:11.831Z,20.62
2022-09-01T08:57:40.642Z,20.48
2022-09-01T09:00:12.712Z,20.54
2022-09-01T09:02:52.775Z,20.58
2022-09-01T09:05:20.283Z,20.55
2022-09-01T09:08:06.442Z,20.73
2022-09-01T09:10:37.317Z,20.69
2022-09-01T09:13:32.214Z,20.69
2022-09-01T09:16:07.808Z,20.99
2022-09-01T09:18:56.642Z,20.96
2022-09-01T09:21:29.944Z,21.10
2022-09-01T09:23:59.431Z,20.97
2022-09-01T09:26:27.430Z,21.02
2022-09-01T09:28:55.245Z,21.08
2022-09-01T09:31:25.879Z,21.15
2022-09-01T09:33:54.000Z,21.27
2022-09-01T09:36:25.471Z,21.14
2022-09-01T09:39:07.430Z,21.12
2022-09-01T09:41:36.211Z,21.35
2022-09-01T09:44:23.153Z,21.10
2022-09-01T09:46:50.619Z,21.59
2022-09-01T09:49:36.488Z,21.67
2022-09-01T09:52:04.872Z,21.51
2022-09-01T09:54:33.527Z,21.73
2022-09-01T09:57:04.868Z,21.58
2022-09-01T09:59:56.938Z,21.77
2022-09-01T10:02:38.185Z,21.99
2022-09-01T10:05:21.341Z,22.06
2022-09-01T10:07:49.243Z,22.09
2022-09-01T10:10:28.029Z,22.22
2022-09-01T10:12:56.174Z,22.32
2022-09-01T10:15:25.333Z,22.27
2022-09-01T10:18:19.576Z,22.25
2022-09-01T10:20:46.449Z,22.66
2022-09-01T10:23:15.721Z,22.78
2022-09-01T10:25:44.532Z,22.77
2022-09-01T10:28:20.097Z,22.84
2022-09-01T10:30:48.775Z,22.92
2022-09-01T10:33:20.894Z,22.85
2022-09-01T10:35:50.907Z,23.09
2022-09-01T10:38:21.443Z,23.02
2022-09-01T10:41:07.294Z,22.81
2022-09-01T10:43:41.621Z,22.90
2022-09-01T10:46:38.752Z,23.12
2022-09-01T10:49:46.374Z,22.98
2022-09-01T10:52:33.277Z,22.86
2022-09-01T10:55:00.979Z,22.92
2022-09-01T10:57:42.915Z,22.92
2022-09-01T11:00:36.317Z,23.29
2022-09-01T11:06:17.206Z,23.80
2022-09-01T11:08:51.167Z,23.83
2022-09-01T11:11:27.954Z,23.41
2022-09-01T11:13:58.889Z,23.59
2022-09-01T11:19:29.262Z,24.05
2022-09-01T11:22:10.486Z,24.22
2022-09-01T11:24:38.272Z,24.05
2022-09-01T11:27:06.561Z,23.88
2022-09-01T11:29:53.004Z,24.24
2022-09-01T11:32:24.928Z,24.14
2022-09-01T11:34:52.228Z,24.06
2022-09-01T11:37:21.245Z,24.37
2022-09-01T11:39:50.167Z,24.76
2022-09-01T11:42:23.793Z,24.44
2022-09-01T11:44:52.971Z,24.53
2022-09-01T11:47:23.000Z,24.65
2022-09-01T11:49:57.719Z,24.53
2022-09-01T11:52:26.255Z,24.60
2022-09-01T11:54:54.469Z,24.35
2022-09-01T11:57:26.616Z,24.63
2022-09-01T11:59:55.114Z,24.03
2022-09-01T12:02:25.398Z,24.44
2022-09-01T12:04:55.550Z,24.89
2022-09-01T12:07:37.590Z,25.18
2022-09-01T12:10:13.844Z,25.37
2022-09-01T12:12:45.829Z,25.01
2022-09-01T12:15:23.709Z,25.32
2022-09-01T12:17:51.218Z,25.03
2022-09-01T12:20:20.150Z,25.21
2022-09-01T12:22:47.510Z,25.43
2022-09-01T12:25:21.146Z,25.60
2022-09-01T12:27:49.171Z,25.46
2022-09-01T12:30:17.199Z,25.27
2022-09-01T12:32:44.562Z,25.35
2022-09-01T12:35:19.318Z,25.60
2022-09-01T12:37:47.366Z,25.81
2022-09-01T12:40:25.756Z,26.00
2022-09-01T12:42:53.349Z,25.75
2022-09-01T12:46:00.074Z,25.78
2022-09-01T12:48:45.543Z,26.14
2022-09-01T12:51:18.678Z,25.68
2022-09-01T12:53:54.098Z,25.68
2022-09-01T12:56:25.321Z,25.78
2022-09-01T12:58:56.832Z,25.79
2022-09-01T13:01:26.381Z,25.27
2022-09-01T13:04:08.057Z,25.21
2022-09-01T13:06:35.666Z,25.60
2022-09-01T13:09:03.049Z,25.33
2022-09-01T13:12:05.771Z,25.31
2022-09-01T13:14:19.176Z,25.59
2022-09-01T13:16:46.567Z,25.65
2022-09-01T13:19:19.810Z,26.07
2022-09-01T13:21:54.148Z,26.08
2022-09-01T13:24:24.516Z,26.17
2022-09-01T13:29:46.495Z,26.46
2022-09-01T13:32:18.721Z,26.34
2022-09-01T13:34:47.830Z,25.63
2022-09-01T13:37:16.797Z,25.72
2022-09-01T13:39:44.128Z,25.51
2022-09-01T13:42:13.526Z,25.96
2022-09-01T13:44:41.289Z,25.88
2022-09-01T13:50:12.589Z,25.73
2022-09-01T13:52:41.649Z,25.66
2022-09-01T13:55:13.711Z,25.65
2022-09-01T13:57:41.432Z,25.22
2022-09-01T14:00:11.007Z,25.15
2022-09-01T14:02:39.444Z,25.06
2022-09-01T14:05:07.418Z,25.24
2022-09-01T14:07:34.834Z,25.42
2022-09-01T14:10:02.789Z,25.55
2022-09-01T14:12:54.074Z,25.48
2022-09-01T14:15:34.018Z,25.74
2022-09-01T14:18:32.931Z,25.61
2022-09-01T14:21:15.921Z,25.50
2022-09-01T14:24:08.492Z,25.46
2022-09-01T14:26:48.427Z,25.36
2022-09-01T14:32:08.211Z,25.15
2022-09-01T14:34:59.311Z,25.28
2022-09-01T14:37:38.610Z,25.23
2022-09-01T14:40:30.308Z,25.41
2022-09-01T14:43:10.500Z,25.39
2022-09-01T14:45:38.475Z,25.45
2022-09-01T14:48:05.745Z,25.50
2022-09-01T14:50:34.144Z,25.51
2022-09-01T14:53:02.490Z,25.50
2022-09-01T14:55:33.043Z,25.49
2022-09-01T14:58:03.330Z,25.11
2022-09-01T15:00:31.732Z,25.04
2022-09-01T15:02:59.249Z,25.19
2022-09-01T15:05:26.851Z,25.30
2022-09-01T15:07:54.435Z,25.50
2022-09-01T15:10:25.186Z,25.29
2022-09-01T15:12:56.938Z,25.08
2022-09-01T15:15:25.029Z,25.35
2022-09-01T15:17:52.491Z,25.42
2022-09-01T15:20:38.584Z,25.36
2022-09-01T15:23:06.942Z,25.46
2022-09-01T15:25:34.373Z,25.40
2022-09-01T15:28:01.816Z,25.19
2022-09-01T15:30:29.395Z,25.25
2022-09-01T15:32:56.719Z,25.60
2022-09-01T15:35:27.394Z,25.00
2022-09-01T15:37:56.098Z,25.02
2022-09-01T15:40:24.496Z,25.03
2022-09-01T15:42:51.862Z,25.03
2022-09-01T15:45:20.542Z,25.12
2022-09-01T15:47:50.917Z,25.29
2022-09-01T15:50:21.628Z,25.22
2022-09-01T15:52:50.095Z,25.38
2022-09-01T15:55:18.490Z,25.11
2022-09-01T15:57:45.948Z,25.02
2022-09-01T16:00:14.416Z,24.77
2022-09-01T16:02:42.597Z,24.87
2022-09-01T16:05:10.119Z,25.02
2022-09-01T16:07:37.510Z,25.17
2022-09-01T16:10:06.919Z,25.47
2022-09-01T16:12:35.817Z,25.38
2022-09-01T16:15:03.794Z,25.21
2022-09-01T16:17:40.587Z,25.37
2022-09-01T16:20:11.053Z,25.26
2022-09-01T16:22:44.103Z,25.43
2022-09-01T16:25:14.890Z,25.41
2022-09-01T16:27:43.264Z,25.41
2022-09-01T16:30:12.683Z,25.35
2022-09-01T16:32:42.135Z,25.19
2022-09-01T16:35:09.920Z,25.25
2022-09-01T16:37:40.332Z,25.18
2022-09-01T16:40:17.131Z,25.09
2022-09-01T16:43:00.532Z,24.98
2022-09-01T16:45:51.061Z,25.08
2022-09-01T16:48:23.017Z,25.01
2022-09-01T16:51:26.030Z,25.06
2022-09-01T16:54:09.255Z,25.13
2022-09-01T16:56:45.462Z,25.00
2022-09-01T17:02:06.190Z,24.94
2022-09-01T17:04:33.913Z,24.89
2022-09-01T17:07:07.221Z,24.67
2022-09-01T17:09:36.390Z,24.84
2022-09-01T17:12:23.502Z,24.77
2022-09-01T17:14:57.740Z,24.66
2022-09-01T17:17:27.249Z,24.58
2022-09-01T17:19:55.857Z,24.61
2022-09-01T17:22:24.316Z,24.48
2022-09-01T17:24:57.259Z,24.13
2022-09-01T17:27:26.868Z,24.01
2022-09-01T17:29:55.367Z,24.11
2022-09-01T17:32:32.108Z,24.07
2022-09-01T17:35:04.984Z,24.01
2022-09-01T17:37:39.335Z,23.79
2022-09-01T17:40:16.978Z,23.37
2022-09-01T17:43:05.105Z,23.43
2022-09-01T17:45:33.293Z,23.36
2022-09-01T17:48:00.526Z,23.24
2022-09-01T17:50:36.934Z,23.17
2022-09-01T17:53:14.250Z,22.94
2022-09-01T17:55:41.567Z,23.04
2022-09-01T17:58:15.246Z,22.99
2022-09-01T18:00:57.169Z,23.04
2022-09-01T18:03:34.712Z,22.90
2022-09-01T18:06:04.486Z,22.88
2022-09-01T18:08:37.397Z,22.74
2022-09-01T18:11:06.543Z,22.71
2022-09-01T18:13:53.028Z,22.61
2022-09-01T18:16:22.206Z,22.47
2022-09-01T18:18:51.138Z,22.17
2022-09-01T18:21:18.541Z,22.24
2022-09-01T18:23:48.371Z,22.27
2022-09-01T18:26:22.292Z,22.30
2022-09-01T18:28:52.755Z,22.00
2022-09-01T18:31:39.669Z,21.91
2022-09-01T18:34:27.165Z,21.86
2022-09-01T18:36:55.106Z,21.84
2022-09-01T18:39:42.012Z,21.85
2022-09-01T18:42:32.750Z,21.81
2022-09-01T18:45:08.104Z,21.77
2022-09-01T18:47:44.635Z,21.71
2022-09-01T18:50:15.074Z,21.67
2022-09-01T18:52:53.305Z,21.44
2022-09-01T18:55:24.749Z,21.42
2022-09-01T18:57:54.094Z,21.44
2022-09-01T19:00:22.758Z,21.26
2022-09-01T19:03:10.966Z,21.27
2022-09-01T19:05:49.278Z,21.28
2022-09-01T19:08:55.924Z,21.01
2022-09-01T19:11:44.448Z,21.08
2022-09-01T19:14:34.863Z,21.14
2022-09-01T19:17:42.366Z,21.14
2022-09-01T19:20:44.250Z,20.93
2022-09-01T19:23:50.012Z,20.87
2022-09-01T19:26:21.391Z,20.78
2022-09-01T19:29:02.190Z,20.87
2022-09-01T19:31:35.594Z,20.71
2022-09-01T19:34:07.198Z,20.83
2022-09-01T19:36:35.060Z,20.63
2022-09-01T19:39:03.608Z,20.60
2022-09-01T19:41:56.138Z,20.65
2022-09-01T19:44:34.089Z,20.56
2022-09-01T19:47:13.772Z,20.52
2022-09-01T19:50:07.956Z,20.40
2022-09-01T19:52:35.296Z,20.46
2022-09-01T19:55:06.187Z,20.49
2022-09-01T19:57:39.506Z,20.56
2022-09-01T20:00:09.157Z,20.51
2022-09-01T20:02:51.516Z,20.50
2022-09-01T20:05:25.255Z,20.42
2022-09-01T20:08:16.453Z,20.29
2022-09-01T20:10:58.184Z,20.19
2022-09-01T20:13:25.968Z,20.07
2022-09-01T20:16:06.125Z,20.01
2022-09-01T20:18:39.482Z,20.14
2022-09-01T20:21:09.157Z,19.99
2022-09-01T20:23:54.500Z,19.85
2022-09-01T20:26:32.807Z,19.97
2022-09-01T20:29:06.840Z,19.94
2022-09-01T20:31:39.733Z,19.80
2022-09-01T20:34:33.996Z,19.70
2022-09-01T20:37:06.822Z,19.63
2022-09-01T20:39:56.398Z,19.66
2022-09-01T20:42:42.843Z,19.69
2022-09-01T20:45:13.616Z,19.68
2022-09-01T20:47:42.940Z,19.66
2022-09-01T20:50:12.174Z,19.51
2022-09-01T20:52:48.881Z,19.58
2022-09-01T20:55:23.784Z,19.29
2022-09-01T20:58:00.372Z,19.45
2022-09-01T21:00:28.791Z,19.23
2022-09-01T21:02:59.348Z,19.62
2022-09-01T21:05:32.327Z,19.44
2022-09-01T21:08:28.018Z,19.41
2022-09-01T21:10:58.453Z,19.35
2022-09-01T21:13:45.324Z,19.30
2022-09-01T21:16:15.225Z,19.22
2022-09-01T21:18:55.224Z,19.04
2022-09-01T21:21:41.611Z,19.00
2022-09-01T21:24:09.281Z,18.95
2022-09-01T21:26:37.732Z,18.92
2022-09-01T21:29:09.838Z,18.68
2022-09-01T21:31:37.666Z,18.83
2022-09-01T21:34:05.239Z,18.73
2022-09-01T21:36:32.628Z,18.93
2022-09-01T21:39:00.311Z,18.90
2022-09-01T21:41:27.769Z,18.50
2022-09-01T21:43:55.151Z,18.88
2022-09-01T21:46:22.907Z,18.48
2022-09-01T21:48:51.359Z,18.45
2022-09-01T21:51:19.175Z,18.33
2022-09-01T21:53:46.896Z,18.54
2022-09-01T21:56:14.462Z,18.08
2022-09-01T21:58:42.042Z,18.11
2022-09-01T22:01:10.620Z,18.15
2022-09-01T22:03:42.284Z,17.99
2022-09-01T22:06:12.902Z,18.10
2022-09-01T22:08:40.276Z,17.98
2022-09-01T22:11:09.989Z,17.83
2022-09-01T22:13:37.313Z,17.58
2022-09-01T22:16:07.226Z,17.77
2022-09-01T22:18:35.164Z,17.90
2022-09-01T22:21:06.158Z,17.81
2022-09-01T22:23:34.509Z,18.09
2022-09-01T22:26:02.133Z,18.48
2022-09-01T22:28:29.586Z,18.76
2022-09-01T22:30:58.019Z,19.02
2022-09-01T22:33:26.326Z,19.13
2022-09-01T22:35:56.305Z,19.21
2022-09-01T22:38:23.838Z,19.36
2022-09-01T22:40:54.754Z,19.57
2022-09-01T22:43:23.018Z,19.45
2022-09-01T22:45:50.988Z,19.86
2022-09-01T22:48:19.433Z,19.68
2022-09-01T22:50:47.319Z,20.07
2022-09-01T22:53:15.971Z,20.08
2022-09-01T22:55:46.424Z,20.04
2022-09-01T22:58:14.407Z,20.11
2022-09-01T23:00:47.519Z,20.09
2022-09-01T23:03:15.779Z,20.02
2022-09-01T23:05:43.569Z,19.87
2022-09-01T23:08:11.004Z,20.34
2022-09-01T23:10:39.078Z,20.21
2022-09-01T23:13:06.446Z,20.08
2022-09-01T23:15:33.804Z,20.15
2022-09-01T23:18:01.500Z,20.15
2022-09-01T23:20:28.900Z,19.89
2022-09-01T23:22:56.302Z,20.17
2022-09-01T23:25:24.691Z,20.26
2022-09-01T23:27:52.408Z,20.38
2022-09-01T23:30:19.784Z,20.26
2022-09-01T23:32:47.495Z,20.42
2022-09-01T23:35:14.764Z,20.43
2022-09-01T23:37:43.860Z,20.56
2022-09-01T23:40:11.628Z,20.44
2022-09-01T23:42:39.057Z,20.10
2022-09-01T23:45:06.437Z,20.40
2022-09-01T23:47:34.098Z,20.81
2022-09-01T23:50:02.800Z,20.56
2022-09-01T23:52:30.071Z,20.61
2022-09-01T23:54:57.696Z,20.43
2022-09-01T23:57:25.339Z,20.64
2022-09-01T23:59:55.715Z,20.52
